Time;durP1;ratioP1;P1;durP2;ratioP2;P2;SDS_P1;SDS_P2;PMS_P1;PMS_P2;Temp;Humidity;BMP_temperature;BMP_pressure;BME280_temperature;BME280_humidity;BME280_pressure;Samples;Min_cycle;Max_cycle;Signal;HPM_P1;HPM_P2
2021/10/29 00:00:05;;;;;;;18.52;13.70;;;;;;;10.68;68.97;101265.29;1758365;81;20953;-70
2021/10/29 00:02:32;;;;;;;17.62;13.40;;;;;;;10.64;69.09;101261.17;1756407;80;21812;-70
2021/10/29 00:04:58;;;;;;;19.45;14.43;;;;;;;10.59;69.25;101259.66;1775779;80;20988;-70
2021/10/29 00:07:25;;;;;;;18.65;13.58;;;;;;;10.52;69.41;101266.31;1776086;80;20992;-71
2021/10/29 00:09:53;;;;;;;21.12;13.78;;;;;;;10.46;69.57;101269.81;1778672;80;20973;-70
2021/10/29 00:12:22;;;;;;;20.20;15.15;;;;;;;10.44;69.74;101270.39;1775472;80;21012;-69
2021/10/29 00:14:50;;;;;;;20.12;14.50;;;;;;;10.43;69.91;101273.98;1769026;80;22205;-70
2021/10/29 00:17:17;;;;;;;21.85;14.40;;;;;;;10.43;70.07;101277.94;1782237;80;21038;-70
2021/10/29 00:19:44;;;;;;;21.65;15.28;;;;;;;10.43;70.23;101270.02;1762222;80;20984;-71
2021/10/29 00:22:11;;;;;;;21.60;15.10;;;;;;;10.43;70.40;101278.78;1767911;80;21001;-71
2021/10/29 00:24:37;;;;;;;20.27;14.38;;;;;;;10.44;70.56;101279.16;1781186;80;21001;-70
2021/10/29 00:27:04;;;;;;;21.62;15.63;;;;;;;10.48;70.68;101279.80;1749719;82;22158;-70
2021/10/29 00:29:30;;;;;;;19.85;14.85;;;;;;;10.50;70.83;101277.89;1779010;80;20945;-71
2021/10/29 00:31:57;;;;;;;20.82;15.48;;;;;;;10.52;70.93;101274.23;1759705;81;21052;-71
2021/10/29 00:34:23;;;;;;;21.95;15.45;;;;;;;10.55;71.01;101282.42;1786836;80;20932;-70
2021/10/29 00:36:49;;;;;;;19.60;14.93;;;;;;;10.57;71.12;101278.73;1783681;80;20975;-71
2021/10/29 00:39:16;;;;;;;21.07;15.35;;;;;;;10.61;71.34;101285.97;1762826;81;21783;-70
2021/10/29 00:41:43;;;;;;;19.77;14.68;;;;;;;10.65;71.35;101280.87;1769463;81;20973;-71
2021/10/29 00:44:10;;;;;;;21.15;15.70;;;;;;;10.70;71.42;101280.56;1758879;81;20969;-71
2021/10/29 00:46:36;;;;;;;23.42;16.52;;;;;;;10.74;71.60;101287.36;1781318;80;21055;-71
2021/10/29 00:49:03;;;;;;;19.20;15.65;;;;;;;10.79;71.64;101288.73;1787637;80;20928;-70
2021/10/29 00:51:29;;;;;;;22.05;16.05;;;;;;;10.84;71.64;101285.80;1782441;80;21835;-71
2021/10/29 00:53:56;;;;;;;23.05;15.48;;;;;;;10.86;71.69;101283.42;1755677;81;21083;-72
2021/10/29 00:56:22;;;;;;;20.12;14.80;;;;;;;10.91;71.77;101280.97;1759144;81;20961;-71
2021/10/29 00:58:48;;;;;;;25.50;16.37;;;;;;;10.93;71.84;101277.27;1779310;80;21029;-71
2021/10/29 01:01:15;;;;;;;22.50;15.58;;;;;;;10.96;71.96;101276.20;1766969;81;20993;-71
2021/10/29 01:03:42;;;;;;;24.10;16.15;;;;;;;10.99;72.01;101273.34;1758827;81;22651;-70
2021/10/29 01:06:10;;;;;;;20.17;15.48;;;;;;;11.03;72.01;101272.22;1780604;80;21459;-71
2021/10/29 01:08:37;;;;;;;21.80;15.05;;;;;;;11.06;71.96;101268.88;1749695;81;20965;-70
2021/10/29 01:11:04;;;;;;;21.73;15.53;;;;;;;11.07;71.87;101271.05;1782662;80;21451;-70
2021/10/29 01:13:32;;;;;;;23.75;16.40;;;;;;;11.07;71.92;101271.05;1781922;80;21024;-69
2021/10/29 01:15:59;;;;;;;26.10;16.42;;;;;;;11.08;72.01;101274.05;1749358;81;22653;-69
2021/10/29 01:18:27;;;;;;;19.65;15.43;;;;;;;11.10;71.99;101270.86;1778747;80;21490;-70
2021/10/29 01:20:55;;;;;;;19.85;15.45;;;;;;;11.10;71.94;101271.70;1753139;81;21344;-70
2021/10/29 01:23:22;;;;;;;23.18;15.23;;;;;;;11.12;71.93;101263.66;1765481;80;21008;-71
2021/10/29 01:25:48;;;;;;;21.15;15.05;;;;;;;11.10;71.88;101268.22;1756817;81;21005;-71
2021/10/29 01:28:15;;;;;;;20.72;15.10;;;;;;;11.12;71.92;101261.02;1763234;81;21840;-70
2021/10/29 01:30:41;;;;;;;20.85;15.10;;;;;;;11.12;71.88;101263.66;1765998;81;21084;-72
2021/10/29 01:33:08;;;;;;;20.80;15.03;;;;;;;11.13;71.93;101260.06;1764557;81;20974;-70
2021/10/29 01:35:34;;;;;;;19.10;15.35;;;;;;;11.14;71.98;101267.05;1776330;80;21106;-71
2021/10/29 01:38:01;;;;;;;20.27;15.38;;;;;;;11.15;71.92;101267.41;1782833;80;20940;-70
2021/10/29 01:40:27;;;;;;;21.25;15.45;;;;;;;11.16;71.87;101264.66;1790518;80;21769;-71
2021/10/29 01:42:54;;;;;;;23.40;16.20;;;;;;;11.16;71.75;101268.63;1787479;80;21367;-71
2021/10/29 01:45:21;;;;;;;21.07;14.50;;;;;;;11.15;71.71;101271.37;1785918;80;20993;-70
2021/10/29 01:47:49;;;;;;;20.10;14.68;;;;;;;11.14;71.69;101276.30;1754133;81;21066;-70
2021/10/29 01:50:15;;;;;;;20.20;14.85;;;;;;;11.14;71.78;101280.27;1737429;81;21427;-71
2021/10/29 01:52:42;;;;;;;20.50;13.93;;;;;;;11.13;71.73;101274.13;1757705;81;22647;-70
2021/10/29 01:55:09;;;;;;;18.87;14.30;;;;;;;11.11;71.69;101273.39;1779569;80;21431;-70
2021/10/29 01:57:35;;;;;;;20.45;14.58;;;;;;;11.10;71.72;101274.83;1749620;82;20964;-70
2021/10/29 02:00:06;;;;;;;17.95;14.10;;;;;;;11.09;71.80;101275.27;1778762;80;20960;-70
2021/10/29 02:02:35;;;;;;;19.98;14.10;;;;;;;11.06;71.75;101274.16;1756099;81;21339;-70
2021/10/29 02:05:02;;;;;;;18.90;13.60;;;;;;;11.05;71.73;101274.27;1752182;81;22484;-71
2021/10/29 02:07:29;;;;;;;18.57;15.43;;;;;;;11.02;71.68;101274.48;1778984;80;20993;-71
2021/10/29 02:09:56;;;;;;;17.25;13.08;;;;;;;11.00;71.67;101277.69;1749792;81;21083;-71
2021/10/29 02:12:23;;;;;;;18.40;14.30;;;;;;;10.95;71.61;101279.33;1779624;80;21495;-70
2021/10/29 02:14:49;;;;;;;19.40;13.83;;;;;;;10.88;71.55;101278.88;1782455;80;21478;-70
2021/10/29 02:17:16;;;;;;;18.35;13.75;;;;;;;10.83;71.55;101282.31;1779785;80;22637;-70
2021/10/29 02:19:42;;;;;;;18.10;13.62;;;;;;;10.77;71.52;101280.06;1747339;81;21459;-71
2021/10/29 02:22:09;;;;;;;20.02;13.45;;;;;;;10.72;71.54;101280.02;1757030;80;21390;-70
2021/10/29 02:24:35;;;;;;;17.37;12.80;;;;;;;10.67;71.53;101288.22;1786927;80;21422;-71
2021/10/29 02:27:03;;;;;;;19.37;14.00;;;;;;;10.63;71.52;101293.82;1783042;80;20821;-71
2021/10/29 02:29:30;;;;;;;19.12;14.10;;;;;;;10.59;71.60;101299.76;1787869;80;22345;-71
2021/10/29 02:31:57;;;;;;;21.77;14.15;;;;;;;10.56;71.69;101302.13;1783778;80;20917;-70
2021/10/29 02:34:23;;;;;;;18.42;14.53;;;;;;;10.55;71.78;101306.20;1784079;80;20920;-71
2021/10/29 02:36:50;;;;;;;20.60;14.90;;;;;;;10.52;71.88;101307.25;1784028;80;20981;-71
2021/10/29 02:39:16;;;;;;;19.37;14.65;;;;;;;10.50;72.21;101305.63;1781780;80;21032;-70
2021/10/29 02:41:43;;;;;;;20.77;15.85;;;;;;;10.52;72.47;101308.57;1750978;81;21826;-70
2021/10/29 02:44:09;;;;;;;23.00;14.65;;;;;;;10.54;72.53;101309.79;1783627;80;20956;-70
2021/10/29 02:46:37;;;;;;;19.92;14.63;;;;;;;10.54;72.67;101313.75;1790102;80;21058;-71
2021/10/29 02:49:05;;;;;;;21.60;15.83;;;;;;;10.55;72.84;101304.41;1787295;80;21229;-70
2021/10/29 02:51:33;;;;;;;20.27;14.73;;;;;;;10.58;73.04;101308.63;1788203;80;20920;-70
2021/10/29 02:54:00;;;;;;;22.55;15.28;;;;;;;10.60;73.12;101303.61;1787050;80;22246;-70
2021/10/29 02:56:26;;;;;;;18.50;15.28;;;;;;;10.62;73.15;101311.47;1765322;81;21016;-70
2021/10/29 02:58:53;;;;;;;22.07;15.88;;;;;;;10.65;73.16;101311.73;1767215;81;21012;-70
2021/10/29 03:01:20;;;;;;;21.90;16.93;;;;;;;10.67;73.30;101312.48;1751894;80;21004;-70
2021/10/29 03:03:46;;;;;;;20.50;16.52;;;;;;;10.67;73.30;101314.64;1783005;80;21020;-70
2021/10/29 03:06:13;;;;;;;21.17;16.00;;;;;;;10.68;73.25;101318.13;1785289;80;21783;-70
2021/10/29 03:08:39;;;;;;;21.45;15.75;;;;;;;10.66;73.25;101322.20;1785287;80;20994;-71
2021/10/29 03:11:06;;;;;;;19.32;15.20;;;;;;;10.63;73.15;101330.33;1784216;80;21496;-71
2021/10/29 03:13:32;;;;;;;20.45;16.20;;;;;;;10.58;73.11;101329.77;1788145;80;20964;-71
2021/10/29 03:15:59;;;;;;;22.10;17.15;;;;;;;10.56;73.09;101331.66;1788298;80;20980;-70
2021/10/29 03:18:26;;;;;;;20.43;16.82;;;;;;;10.53;73.17;101335.83;1761442;80;22646;-70
2021/10/29 03:20:54;;;;;;;20.05;15.98;;;;;;;10.52;73.32;101333.67;1725927;83;21014;-70
2021/10/29 03:23:20;;;;;;;20.60;16.20;;;;;;;10.51;73.34;101343.83;1725911;83;20980;-71
2021/10/29 03:25:47;;;;;;;21.35;16.52;;;;;;;10.50;73.36;101342.61;1710302;83;21025;-71
2021/10/29 03:28:13;;;;;;;21.50;16.48;;;;;;;10.49;73.33;101343.08;1740874;82;20948;-71
2021/10/29 03:30:40;;;;;;;22.48;15.78;;;;;;;10.48;73.29;101336.11;1728551;82;22260;-71
2021/10/29 03:33:07;;;;;;;23.40;15.80;;;;;;;10.45;73.22;101339.43;1759881;81;21079;-71
2021/10/29 03:35:33;;;;;;;21.77;15.85;;;;;;;10.41;73.09;101337.44;1756782;81;20941;-71
2021/10/29 03:38:10;;;;;;;21.55;15.85;;;;;;;10.35;72.98;101333.03;1752846;81;21048;-71
2021/10/29 03:45:53;;;;;;;22.55;16.40;;;;;;;10.07;72.64;101333.41;1734123;81;20952;-70
2021/10/29 03:48:22;;;;;;;22.50;16.45;;;;;;;9.96;72.51;101336.71;1761512;80;21487;-71
2021/10/29 03:53:31;;;;;;;23.10;16.80;;;;;;;9.78;72.85;101335.66;1706242;80;20904;-71
2021/10/29 03:55:53;;;;;;;23.05;17.30;;;;;;;9.71;72.80;101336.50;1759284;81;21539;-70
2021/10/29 03:58:18;;;;;;;22.62;17.30;;;;;;;9.63;72.72;101340.06;1759551;81;21073;-71
2021/10/29 04:00:44;;;;;;;22.27;16.05;;;;;;;9.58;72.69;101346.09;1760302;80;20952;-71
2021/10/29 04:03:11;;;;;;;23.70;17.00;;;;;;;9.53;72.63;101352.95;1754248;81;20958;-71
2021/10/29 04:05:37;;;;;;;21.40;16.12;;;;;;;9.42;72.50;101350.95;1760139;81;20992;-70
2021/10/29 04:08:03;;;;;;;21.33;16.42;;;;;;;9.35;72.47;101355.34;1759908;81;21791;-70
2021/10/29 04:10:30;;;;;;;24.00;17.00;;;;;;;9.28;72.42;101364.11;1733670;81;21091;-73
2021/10/29 04:13:01;;;;;;;22.30;17.27;;;;;;;9.16;72.32;101361.69;1759768;81;21070;-71
2021/10/29 04:15:28;;;;;;;20.57;16.77;;;;;;;9.06;72.25;101371.06;1759757;81;21114;-71
2021/10/29 04:17:58;;;;;;;24.30;16.73;;;;;;;8.95;72.25;101375.25;1759448;81;20948;-71
2021/10/29 04:20:24;;;;;;;23.05;16.93;;;;;;;8.84;72.31;101370.12;1758994;81;22217;-72
2021/10/29 04:22:52;;;;;;;21.80;16.52;;;;;;;8.75;72.39;101368.47;1758476;81;21008;-72
2021/10/29 04:25:19;;;;;;;24.12;16.65;;;;;;;8.68;72.47;101378.95;1779247;80;21035;-72
2021/10/29 04:27:49;;;;;;;21.75;16.62;;;;;;;8.65;72.66;101383.09;1790925;80;20987;-73
2021/10/29 04:30:17;;;;;;;23.92;17.55;;;;;;;8.60;72.87;101378.94;1788838;80;20943;-72
2021/10/29 04:32:42;;;;;;;24.95;17.42;;;;;;;8.57;73.12;101384.35;1769392;80;21853;-71
2021/10/29 04:35:10;;;;;;;23.60;17.45;;;;;;;8.55;73.28;101389.33;1767936;81;20996;-70
2021/10/29 04:37:41;;;;;;;20.52;16.73;;;;;;;8.52;73.42;101394.30;1769276;81;34062;-72
2021/10/29 04:40:08;;;;;;;24.35;17.23;;;;;;;8.53;73.66;101399.95;1773389;79;21000;-75
2021/10/29 04:42:37;;;;;;;21.20;17.52;;;;;;;8.54;74.01;101402.96;1771460;79;21004;-72
2021/10/29 04:45:05;;;;;;;25.80;18.37;;;;;;;8.54;74.26;101405.59;1769612;81;21765;-72
2021/10/29 04:47:33;;;;;;;22.35;18.23;;;;;;;8.60;74.58;101404.42;1769396;81;20951;-70
2021/10/29 04:49:59;;;;;;;22.58;18.27;;;;;;;8.67;74.84;101404.45;1773785;80;20984;-72
2021/10/29 04:52:26;;;;;;;29.90;18.82;;;;;;;8.76;75.35;101407.05;1738958;81;20971;-72
2021/10/29 04:54:53;;;;;;;27.55;19.55;;;;;;;8.86;75.71;101402.96;1769647;81;20943;-71
2021/10/29 04:57:19;;;;;;;29.50;19.70;;;;;;;8.92;75.97;101397.36;1769318;81;22970;-73
2021/10/29 04:59:46;;;;;;;26.85;19.30;;;;;;;8.99;76.25;101403.99;1769364;81;21032;-71
2021/10/29 05:02:13;;;;;;;26.87;19.23;;;;;;;9.04;76.33;101405.03;1781401;80;20949;-72
2021/10/29 05:04:41;;;;;;;29.02;20.40;;;;;;;9.09;76.54;101409.13;1771847;79;21039;-72
2021/10/29 05:07:07;;;;;;;30.23;21.48;;;;;;;9.13;76.81;101411.95;1769431;81;21521;-72
2021/10/29 05:09:33;;;;;;;29.98;21.97;;;;;;;9.20;77.18;101403.23;1769489;80;22454;-72
2021/10/29 05:11:59;;;;;;;30.72;21.12;;;;;;;;;;1769228;81;21416;-72
2021/10/29 05:14:27;;;;;;;37.28;21.82;;;;;;;9.33;77.53;101409.96;1767793;81;21007;-72
2021/10/29 05:16:53;;;;;;;32.60;22.40;;;;;;;9.38;77.70;101402.66;1766139;81;20956;-72
2021/10/29 05:19:20;;;;;;;33.50;22.52;;;;;;;9.44;77.94;101397.84;1766593;81;21008;-71
2021/10/29 05:21:46;;;;;;;32.17;20.85;;;;;;;9.49;78.14;101404.66;1768923;81;22184;-73
2021/10/29 05:24:12;;;;;;;36.90;21.73;;;;;;;9.54;78.38;101410.03;1769344;81;20936;-73
2021/10/29 05:26:39;;;;;;;34.33;22.48;;;;;;;9.56;78.59;101412.60;1766190;81;21000;-73
2021/10/29 05:29:05;;;;;;;64.27;21.82;;;;;;;9.59;78.70;101419.86;1763532;80;21106;-74
2021/10/29 05:31:32;;;;;;;53.23;20.52;;;;;;;9.63;78.84;101424.00;1764595;80;21447;-73
2021/10/29 05:33:58;;;;;;;38.63;21.23;;;;;;;9.65;79.00;101426.54;1762520;81;21753;-72
2021/10/29 05:36:25;;;;;;;34.70;21.37;;;;;;;9.65;79.14;101427.86;1768450;80;21008;-72
2021/10/29 05:38:52;;;;;;;46.58;21.93;;;;;;;9.66;79.26;101434.86;1768207;80;21051;-73
2021/10/29 05:41:18;;;;;;;54.50;21.12;;;;;;;9.68;79.35;101433.83;1778091;80;21079;-72
2021/10/29 05:43:44;;;;;;;63.70;20.00;;;;;;;9.71;79.46;101432.31;1772319;80;21031;-72
2021/10/29 05:46:11;;;;;;;67.30;21.68;;;;;;;9.73;79.50;101441.45;1763862;80;21825;-72
2021/10/29 05:48:38;;;;;;;63.83;21.00;;;;;;;9.74;79.58;101441.83;1758209;81;21510;-73
2021/10/29 05:51:13;;;;;;;35.63;21.00;;;;;;;9.74;79.66;101442.67;1765273;81;21030;-73
2021/10/29 05:53:53;;;;;;;90.32;21.95;;;;;;;9.79;79.78;101442.42;1765233;80;21004;-73
2021/10/29 05:56:07;;;;;;;70.20;21.87;;;;;;;9.82;79.81;101442.70;1762536;81;21459;-73
2021/10/29 05:58:36;;;;;;;49.48;22.40;;;;;;;9.85;79.84;101441.22;1765078;81;22752;-73
2021/10/29 06:01:02;;;;;;;55.92;21.80;;;;;;;9.86;79.89;101444.23;1767733;80;21090;-73
2021/10/29 06:03:29;;;;;;;35.25;21.73;;;;;;;9.89;79.99;101442.73;1746788;81;21024;-73
2021/10/29 06:05:56;;;;;;;76.17;19.70;;;;;;;9.92;80.07;101443.85;1731386;82;21080;-72
2021/10/29 06:08:22;;;;;;;170.40;19.00;;;;;;;9.96;80.13;101444.07;1731502;82;21039;-73
2021/10/29 06:10:49;;;;;;;47.65;18.42;;;;;;;9.97;80.11;101451.04;1731385;82;21830;-72
2021/10/29 06:13:17;;;;;;;84.50;17.45;;;;;;;9.91;80.11;101449.61;1743858;79;21608;-69
2021/10/29 06:15:47;;;;;;;61.88;18.10;;;;;;;9.92;80.16;101455.73;1764968;81;21023;-70
2021/10/29 06:18:22;;;;;;;121.25;17.27;;;;;;;9.92;80.17;101457.05;1765276;81;20999;-72
2021/10/29 06:20:42;;;;;;;48.65;17.25;;;;;;;9.93;80.23;101470.63;1764010;80;21098;-72
2021/10/29 06:23:09;;;;;;;61.80;17.95;;;;;;;9.92;80.26;101468.92;1767969;80;22232;-71
2021/10/29 06:25:47;;;;;;;46.53;18.80;;;;;;;9.91;80.32;101470.72;1735178;81;21035;-71
2021/10/29 06:30:44;;;;;;;36.77;17.60;;;;;;;9.92;80.42;101480.33;1753897;81;21031;-70
2021/10/29 06:33:12;;;;;;;80.05;19.42;;;;;;;9.94;80.51;101478.91;1760917;80;21047;-71
2021/10/29 06:35:39;;;;;;;85.45;19.42;;;;;;;9.97;80.56;101478.28;1760251;80;21797;-71
2021/10/29 06:38:08;;;;;;;37.95;18.07;;;;;;;10.02;80.55;101482.80;1770506;80;21011;-71
2021/10/29 06:40:44;;;;;;;136.80;18.95;;;;;;;10.03;80.53;101483.17;1753335;80;21003;-70
2021/10/29 06:43:12;;;;;;;41.83;21.70;;;;;;;10.08;80.58;101486.03;1728786;82;21025;-70
2021/10/29 06:48:32;;;;;;;62.43;22.37;;;;;;;10.11;80.54;101496.40;1739455;82;22223;-72
2021/10/29 06:59:20;;;;;;;58.28;20.57;;;;;;;10.04;80.36;101498.10;1731003;82;21149;-70
2021/10/29 07:01:59;;;;;;;77.42;18.98;;;;;;;10.09;80.49;101497.81;1734161;82;21814;-71
2021/10/29 07:39:58;;;;;;;73.83;28.87;;;;;;;10.11;80.59;101507.80;1716452;83;21505;-71
2021/10/29 07:40:16;;;;;;;39.40;20.15;;;;;;;10.17;80.59;101518.48;1748655;81;21024;-72
2021/10/29 07:45:18;;;;;;;36.83;20.65;;;;;;;10.27;80.78;101517.03;1740861;81;21021;-71
2021/10/29 07:47:45;;;;;;;49.23;20.75;;;;;;;10.36;80.84;101521.76;1766871;79;21372;-72
2021/10/29 07:50:12;;;;;;;33.33;20.82;;;;;;;10.42;80.84;101527.12;1765451;79;21026;-70
2021/10/29 07:52:40;;;;;;;40.52;16.40;;;;;;;10.49;80.83;101528.45;1764755;79;21044;-72
2021/10/29 07:55:09;;;;;;;21.80;17.27;;;;;;;10.55;80.84;101524.13;1741005;81;21854;-70
2021/10/29 07:57:36;;;;;;;28.15;18.27;;;;;;;10.58;80.70;101520.83;1783147;79;21485;-71
2021/10/29 08:00:06;;;;;;;26.23;22.07;;;;;;;10.64;80.64;101518.77;1748099;81;21415;-71
2021/10/29 08:02:33;;;;;;;31.55;24.25;;;;;;;10.66;80.57;101529.61;1764205;81;20968;-69
2021/10/29 08:05:00;;;;;;;27.02;23.50;;;;;;;10.70;80.45;101527.61;1767100;80;21035;-70
2021/10/29 08:07:27;;;;;;;22.75;18.82;;;;;;;10.72;80.31;101533.68;1766649;81;22197;-70
2021/10/29 08:09:54;;;;;;;28.67;18.57;;;;;;;10.75;80.20;101533.48;1775371;80;21371;-70
2021/10/29 08:12:20;;;;;;;26.80;18.25;;;;;;;10.78;80.08;101533.28;1784601;80;20993;-71
2021/10/29 08:14:48;;;;;;;27.67;21.37;;;;;;;10.78;79.91;101530.16;1779752;80;21499;-70
2021/10/29 08:17:16;;;;;;;25.55;21.73;;;;;;;10.80;79.84;101534.87;1759842;80;20952;-70
2021/10/29 08:19:43;;;;;;;25.60;22.30;;;;;;;10.81;79.72;101541.89;1731418;81;22224;-71
2021/10/29 08:22:10;;;;;;;25.62;18.73;;;;;;;10.83;79.68;101546.60;1786992;80;20960;-70
2021/10/29 08:24:38;;;;;;;24.05;17.73;;;;;;;10.85;79.61;101540.75;1788207;78;20953;-71
2021/10/29 08:27:07;;;;;;;24.25;18.40;;;;;;;10.87;79.45;101541.97;1788025;80;20980;-70
2021/10/29 08:29:37;;;;;;;22.42;17.62;;;;;;;10.90;79.36;101547.05;1788162;80;20936;-69
2021/10/29 08:32:04;;;;;;;23.67;18.52;;;;;;;10.94;79.26;101547.25;1786920;80;22449;-71
2021/10/29 08:34:31;;;;;;;28.67;17.75;;;;;;;10.97;79.14;101552.81;1771536;80;20968;-69
2021/10/29 08:36:58;;;;;;;22.80;18.17;;;;;;;10.99;79.05;101558.38;1760742;80;20996;-72
2021/10/29 08:39:29;;;;;;;20.62;17.67;;;;;;;11.03;79.01;101557.73;1771702;80;20980;-70
2021/10/29 08:42:00;;;;;;;20.35;17.25;;;;;;;11.07;78.94;101561.39;1749331;81;20949;-72
2021/10/29 08:44:27;;;;;;;21.42;16.80;;;;;;;11.14;78.84;101568.48;1755269;81;22795;-70
2021/10/29 08:46:54;;;;;;;22.13;18.27;;;;;;;11.17;78.62;101570.45;1755775;81;20945;-71
2021/10/29 08:49:21;;;;;;;23.65;19.10;;;;;;;11.19;78.47;101574.31;1753909;81;20988;-71
2021/10/29 08:51:48;;;;;;;25.12;21.87;;;;;;;11.17;78.24;101573.09;1756955;81;21037;-72
2021/10/29 08:54:14;;;;;;;30.05;20.68;;;;;;;11.11;78.05;101570.00;1774434;80;21397;-71
2021/10/29 08:56:41;;;;;;;26.07;21.82;;;;;;;11.08;77.93;101572.82;1769252;80;22845;-74
2021/10/29 08:59:23;;;;;;;30.62;21.27;;;;;;;11.04;77.74;101573.97;1787698;80;21146;-76
2021/10/29 09:02:07;;;;;;;31.33;24.15;;;;;;;11.01;77.71;101575.02;1778510;79;21061;-73
2021/10/29 09:04:53;;;;;;;28.57;23.45;;;;;;;10.98;77.74;101579.16;1785187;79;21167;-73
2021/10/29 09:10:14;;;;;;;27.73;23.10;;;;;;;11.09;77.91;101578.48;1757079;80;21812;-72
2021/10/29 09:33:05;;;;;;;15.68;13.15;;;;;;;11.38;76.32;101568.71;1784884;80;21158;-72
2021/10/29 09:35:36;;;;;;;18.77;13.62;;;;;;;11.36;76.23;101563.52;1787295;80;21483;-72
2021/10/29 09:38:12;;;;;;;16.77;13.80;;;;;;;11.37;76.09;101569.19;1760109;80;21808;-70
2021/10/29 09:41:00;;;;;;;16.37;14.30;;;;;;;11.34;75.98;101565.42;1678416;81;21008;-72
2021/10/29 09:43:26;;;;;;;18.17;15.03;;;;;;;11.31;75.85;101560.81;1760632;80;21011;-71
2021/10/29 09:46:02;;;;;;;17.30;14.58;;;;;;;11.30;75.92;101556.00;1759192;81;21077;-71
2021/10/29 09:51:10;;;;;;;19.23;16.20;;;;;;;11.43;76.02;101560.02;1758686;80;21828;-73
2021/10/29 09:58:53;;;;;;;24.50;20.68;;;;;;;11.60;75.79;101566.88;1743287;81;21083;-72
2021/10/29 10:01:22;;;;;;;23.45;20.65;;;;;;;11.63;75.60;101568.84;1742118;81;20987;-71
2021/10/29 10:03:50;;;;;;;22.37;19.52;;;;;;;11.63;75.44;101566.67;1761232;80;22234;-73
2021/10/29 10:06:22;;;;;;;23.40;20.82;;;;;;;11.64;75.37;101570.55;1759871;80;20920;-73
2021/10/29 10:08:53;;;;;;;22.40;20.00;;;;;;;11.64;75.28;101562.60;1760482;80;20971;-72
2021/10/29 10:11:24;;;;;;;15.70;14.10;;;;;;;11.63;75.18;101566.20;1760154;80;21567;-73
2021/10/29 10:13:52;;;;;;;21.48;19.07;;;;;;;11.69;75.21;101570.26;1746735;81;20982;-73
2021/10/29 10:16:19;;;;;;;22.40;19.70;;;;;;;11.76;75.09;101572.37;1758888;81;22455;-72
2021/10/29 10:18:46;;;;;;;25.17;22.67;;;;;;;11.81;74.93;101569.48;1759189;81;21422;-72
2021/10/29 10:21:20;;;;;;;25.48;22.95;;;;;;;11.77;74.53;101571.91;1760038;81;20943;-73
2021/10/29 10:23:48;;;;;;;31.33;28.33;;;;;;;11.67;74.29;101572.98;1759924;81;20943;-70
2021/10/29 10:26:46;;;;;;;31.25;28.30;;;;;;;11.52;74.20;101578.43;1759462;80;21003;-72
2021/10/29 10:43:22;;;;;;;20.27;15.90;;;;;;;11.61;74.59;101581.81;1758067;81;21845;-74
2021/10/29 10:46:05;;;;;;;16.77;14.38;;;;;;;11.67;74.38;101579.59;1764105;81;20997;-71
2021/10/29 10:48:43;;;;;;;15.75;13.00;;;;;;;11.68;74.34;101577.35;1769827;81;20951;-72
2021/10/29 10:54:36;;;;;;;17.07;12.88;;;;;;;11.75;74.15;101579.95;1763709;80;21430;-72
2021/10/29 11:00:30;;;;;;;18.42;13.05;;;;;;;11.84;73.90;101569.75;1748265;82;21561;-73
2021/10/29 11:11:03;;;;;;;17.37;13.85;;;;;;;11.82;73.07;101560.59;1748675;82;22171;-72
2021/10/29 11:13:48;;;;;;;17.00;13.60;;;;;;;11.73;73.24;101561.16;1748938;80;21103;-72
2021/10/29 11:16:35;;;;;;;22.70;13.75;;;;;;;11.75;73.34;101557.45;1736001;82;20955;-72
2021/10/29 11:19:15;;;;;;;14.80;13.15;;;;;;;11.77;73.26;101561.31;1749997;79;21130;-73
2021/10/29 11:21:56;;;;;;;14.05;12.58;;;;;;;11.75;73.24;101560.10;1765829;80;21122;-74
2021/10/29 11:24:35;;;;;;;16.75;14.78;;;;;;;11.75;73.26;101556.61;1767063;80;21801;-74
2021/10/29 11:27:13;;;;;;;21.17;18.98;;;;;;;11.76;73.34;101562.27;1763704;81;20953;-73
2021/10/29 11:29:50;;;;;;;15.93;14.23;;;;;;;11.78;73.25;101559.55;1735642;81;21008;-72
2021/10/29 11:32:20;;;;;;;22.48;17.57;;;;;;;11.74;73.18;101557.08;1760218;81;21011;-72
2021/10/29 11:34:49;;;;;;;21.50;19.30;;;;;;;11.66;73.24;101554.08;1758792;80;21028;-72
2021/10/29 11:37:15;;;;;;;25.57;22.32;;;;;;;11.68;73.35;101547.39;1757689;80;21759;-73
2021/10/29 11:39:42;;;;;;;24.98;22.50;;;;;;;11.73;73.48;101552.73;1760116;80;21054;-73
2021/10/29 11:42:09;;;;;;;25.77;23.07;;;;;;;11.75;73.39;101545.55;1758141;81;20976;-71
2021/10/29 11:44:39;;;;;;;23.47;21.15;;;;;;;11.75;73.28;101553.95;1756868;80;20964;-72
2021/10/29 11:47:06;;;;;;;22.90;20.48;;;;;;;11.78;73.40;101547.16;1759216;81;20941;-72
2021/10/29 11:49:34;;;;;;;21.50;19.20;;;;;;;11.84;73.41;101552.06;1759904;81;22435;-71
2021/10/29 11:52:03;;;;;;;21.97;19.62;;;;;;;11.87;73.33;101547.03;1759496;80;20971;-71
2021/10/29 11:54:36;;;;;;;18.75;16.85;;;;;;;11.89;73.30;101549.98;1754695;81;20952;-71
2021/10/29 12:06:00;;;;;;;14.45;11.83;;;;;;;12.08;72.93;101547.44;1759426;80;21381;-72
2021/10/29 12:08:26;;;;;;;16.15;13.32;;;;;;;12.15;72.56;101543.40;1756966;81;21534;-72
2021/10/29 12:11:05;;;;;;;18.95;14.93;;;;;;;12.14;72.45;101542.55;1757068;81;21042;-72
2021/10/29 12:13:33;;;;;;;16.57;14.20;;;;;;;12.14;72.30;101540.38;1755569;80;21465;-72
2021/10/29 12:16:00;;;;;;;18.20;13.78;;;;;;;12.08;71.98;101547.44;1758644;81;21832;-71
2021/10/29 12:18:33;;;;;;;20.55;13.10;;;;;;;12.04;71.98;101548.09;1759958;81;20984;-72
2021/10/29 12:20:54;;;;;;;12.82;11.10;;;;;;;12.02;71.72;101552.17;1762715;80;20994;-71
2021/10/29 12:23:27;;;;;;;11.15;9.88;;;;;;;11.93;71.74;101547.97;1758861;80;21024;-73
2021/10/29 12:25:59;;;;;;;16.42;9.70;;;;;;;11.92;71.80;101547.12;1756743;80;21101;-72
2021/10/29 12:28:27;;;;;;;10.15;8.88;;;;;;;11.88;71.53;101545.63;1766537;80;23085;-71
2021/10/29 12:30:56;;;;;;;9.23;8.20;;;;;;;11.80;71.50;101551.91;1766520;80;21004;-72
2021/10/29 13:04:09;;;;;;;12.45;8.40;;;;;;;11.04;72.60;101553.66;1770217;81;20999;-72
2021/10/29 13:06:40;;;;;;;17.17;7.42;;;;;;;11.02;72.51;101553.39;1772889;79;21528;-73
2021/10/29 13:09:15;;;;;;;17.20;7.17;;;;;;;10.98;72.41;101559.80;1767019;80;21833;-74
2021/10/29 13:11:47;;;;;;;15.63;8.33;;;;;;;10.87;72.21;101554.70;1766715;80;21081;-73
2021/10/29 13:14:17;;;;;;;34.13;9.05;;;;;;;10.68;72.31;101558.10;1769102;79;20952;-73
2021/10/29 13:16:42;;;;;;;16.23;9.15;;;;;;;10.51;72.38;101552.51;1768048;81;21039;-73
2021/10/29 13:19:22;;;;;;;14.68;10.50;;;;;;;10.36;72.73;101559.20;1769498;81;21068;-72
2021/10/29 13:35:17;;;;;;;14.83;8.78;;;;;;;10.16;73.71;101567.80;1766492;81;21894;-71
2021/10/29 13:37:41;;;;;;;12.03;9.38;;;;;;;10.08;73.78;101572.67;1761977;81;20975;-75
2021/10/29 13:51:04;;;;;;;15.72;10.50;;;;;;;9.94;74.80;101566.89;1766069;81;21095;-72
2021/10/29 13:53:39;;;;;;;33.30;11.45;;;;;;;9.93;74.86;101566.95;1764053;81;21015;-73
2021/10/29 14:33:07;;;;;;;25.23;16.52;;;;;;;9.77;78.74;101565.67;1709553;84;21054;-77
2021/10/29 14:35:36;;;;;;;33.88;16.23;;;;;;;9.79;78.89;101563.80;1709148;84;21004;-74
2021/10/29 14:40:34;;;;;;;42.53;13.25;;;;;;;9.80;79.00;101563.33;1738248;82;22181;-74
2021/10/29 14:45:42;;;;;;;35.73;14.90;;;;;;;9.73;79.09;101560.17;1737048;82;21437;-75
2021/10/29 15:06:21;;;;;;;111.10;14.33;;;;;;;9.54;79.88;101558.20;1740349;81;22710;-74
2021/10/29 15:17:14;;;;;;;45.65;14.58;;;;;;;9.32;80.43;101571.73;1782582;80;20957;-76
2021/10/29 15:30:10;;;;;;;47.40;12.93;;;;;;;9.22;81.03;101580.61;1726495;83;21501;-75
2021/10/29 15:32:45;;;;;;;48.73;13.30;;;;;;;9.19;81.15;101579.47;1752401;81;21851;-74
2021/10/29 15:45:39;;;;;;;83.62;17.67;;;;;;;9.11;81.71;101589.11;1756511;81;21845;-74
2021/10/29 15:48:24;;;;;;;42.38;12.53;;;;;;;9.12;81.80;101584.21;1765184;81;21487;-74